• Join FlightAware (Why Join?)
  • Login
  • US Flag 
09:58AM EDT


 

Airport Tracker/Info


-or-


 

Live Flight TrackerFlight Track Log ✈ N745VJ ✈ 26-Apr-2013 ✈ KCLT - KJFK

Flight Track Log - Related Links

Times and Time Zones

All times are in EDT time to prevent confusion due to time zone crossing. See the N745VJ flight status page for this flight to view local times or setup timezone preferences in your user account.

Time Position Orientation Groundspeed Altitude Reporting Facility
EDT Latitude Longitude Course Direction KTS MPH feet Rate Location/Type
07:50AM 35.2306 -80.9392 72° East 157 181 1,600  Level Atlanta Center
07:50AM 35.2472 -80.9411 355° North 152 175 2,600 2,100 Climbing Atlanta Center
07:51AM 35.2906 -80.9167 25° Northeast 198 228 4,600 1,860 Climbing Atlanta Center
07:52AM 35.1000 -80.6553 90° East  Level FlightAware Approximate
07:52AM 35.3061 -80.8728 67° East 249 287 5,500  Level Atlanta Center
07:52AM 35.3131 -80.8242 80° East 291 335 7,100 2,880 Climbing Atlanta Center
07:53AM 35.1716 -80.5856 29° Northeast  Level FlightAware Approximate
07:53AM 35.3183 -80.7808 81° East 290 334 8,400  Level Atlanta Center
07:54AM 35.2581 -80.5252 30° Northeast  Level FlightAware Approximate
07:54AM 35.3367 -80.6858 77° East 332 382 11,000  Level Atlanta Center
07:55AM 35.3338 -80.4650 72° East  Level FlightAware Approximate
07:55AM 35.3561 -80.5653 79° East 348 400 13,400  Level Atlanta Center
07:56AM 35.3797 -80.4394 77° East 369 425 16,100 2,340 Climbing Atlanta Center
07:58AM 35.4211 -80.1850 79° East 399 459 20,000 1,920 Climbing Washington Center
07:59AM 35.4575 -80.0469 72° East 412 474 21,700 1,800 Climbing Washington Center
08:00AM 35.4964 -79.9011 72° East 417 480 23,600 1,860 Climbing Washington Center
08:01AM 35.5328 -79.7525 73° East 434 499 25,500 1,680 Climbing Washington Center
08:02AM 35.5714 -79.5986 73° East 453 521 27,000 1,560 Climbing Washington Center
08:03AM 35.6164 -79.4372 71° East 481 554 28,700 1,440 Climbing Washington Center
08:04AM 35.6689 -79.2942 66° East 481 554 30,000 1,320 Climbing Washington Center
08:05AM 35.7300 -79.1436 63° Northeast 475 547 31,400 1,440 Climbing Washington Center
08:06AM 35.7906 -78.9978 63° Northeast 475 547 32,900 1,560 Climbing Washington Center
08:07AM 35.8489 -78.8464 65° Northeast 480 552 34,600 1,200 Climbing Washington Center
08:08AM 35.8867 -78.6864 74° East 480 552 35,400 960 Climbing Washington Center
08:09AM 35.9036 -78.5103 83° East 493 567 36,600 1,080 Climbing Washington Center
08:10AM 35.9200 -78.3389 83° East 498 573 37,600 660 Climbing Washington Center
08:11AM 35.9336 -78.2008 83° East 503 579 38,000 480 Climbing Washington Center
08:12AM 35.9525 -77.9911 84° East 503 579 38,600 480 Climbing Washington Center
08:13AM 35.9728 -77.8172 82° East 503 579 39,000 180 Climbing Washington Center
08:14AM 36.0194 -77.6567 70° East 493 567 39,000  Level Washington Center
08:15AM 36.0967 -77.5200 55° Northeast 487 560 39,000  Level Washington Center
08:16AM 36.1633 -77.4006 55° Northeast 476 548 39,000  Level Washington Center
08:17AM 36.2444 -77.2711 52° Northeast 471 542 39,000  Level Washington Center
08:18AM 36.3256 -77.1414 52° Northeast 471 542 39,000 -60 Level Washington Center
08:19AM 36.4269 -77.0428 38° Northeast 459 528 38,900  Descending Washington Center
08:20AM 36.5261 -76.9464 38° Northeast 454 522 39,000  Climbing Washington Center
08:21AM 36.6272 -76.8497 37° Northeast 454 522 39,000  Level Washington Center
08:22AM 36.7306 -76.7528 37° Northeast 454 522 39,000  Level Washington Center
08:23AM 36.8336 -76.6533 38° Northeast 460 529 39,000  Level Washington Center
08:24AM 36.9325 -76.5586 37° Northeast 460 529 39,000  Level Washington Center
08:25AM 37.0458 -76.4506 37° Northeast 465 535 39,000  Level Washington Center
08:26AM 37.1489 -76.3500 38° Northeast 465 535 39,000  Level Washington Center
08:27AM 37.2494 -76.2547 37° Northeast 465 535 39,000  Level Washington Center
08:28AM 37.3522 -76.1561 37° Northeast 465 535 39,000  Level Washington Center
08:29AM 37.4547 -76.0628 36° Northeast 460 529 39,000 -60 Level Washington Center
08:30AM 37.5553 -75.9639 38° Northeast 460 529 38,900  Descending Washington Center
08:31AM 37.6578 -75.8647 37° Northeast 460 529 39,000  Climbing Washington Center
08:32AM 37.7600 -75.7653 38° Northeast 460 529 38,900  Descending Washington Center
08:33AM 37.8625 -75.6628 38° Northeast 460 529 39,000  Climbing Washington Center
08:34AM 37.9644 -75.5603 38° Northeast 460 529 39,000  Level Washington Center
08:35AM 38.0689 -75.4653 36° Northeast 460 529 39,000  Level Washington Center
08:36AM 38.1856 -75.3911 27° Northeast 455 524 39,000  Level Washington Center
08:37AM 38.2958 -75.3167 28° Northeast 455 524 39,000 -300 Level Washington Center
08:38AM 38.4103 -75.2392 28° Northeast 450 518 38,500 -900 Descending Washington Center
08:39AM 38.5247 -75.1697 25° Northeast 450 518 37,300 -1,800 Descending Washington Center
08:40AM 38.6350 -75.1025 25° Northeast 445 512 35,000 -2,400 Descending Washington Center
08:41AM 38.7472 -75.0272 28° Northeast 445 512 32,500 -1,980 Descending Washington Center
08:42AM 38.8531 -74.9600 26° Northeast 445 512 31,100 -1,500 Descending Washington Center
08:43AM 38.9633 -74.8922 26° Northeast 440 506 29,600 -1,680 Descending Washington Center
08:44AM 39.0711 -74.8164 29° Northeast 435 501 27,800 -1,800 Descending Washington Center
08:45AM 39.1644 -74.7297 36° Northeast 429 494 26,000 -1,800 Descending Washington Center
08:46AM 39.2511 -74.6347 40° Northeast 424 488 24,200 -1,800 Descending Washington Center
08:47AM 39.3706 -74.5092 39° Northeast 420 483 21,800 -1,740 Descending New York Center
08:48AM 39.4547 -74.4167 40° Northeast 385 443 20,200 -1,740 Descending New York Center
08:49AM 39.5369 -74.3242 41° Northeast 380 437 18,400 -1,140 Descending New York Center
08:50AM 39.6189 -74.2339 40° Northeast 380 437 18,000 -720 Descending New York Center
08:51AM 39.6964 -74.1486 40° Northeast 375 432 17,100 -1,620 Descending New York Center
08:52AM 39.7650 -74.0764 39° Northeast 358 412 14,800 -1,740 Descending New York Center
08:53AM 39.8467 -73.9883 40° Northeast 347 399 13,600 -1,620 Descending New York Center
08:54AM 39.9256 -73.9297 30° Northeast 331 381 11,700 -1,320 Descending New York Center
08:55AM 40.0042 -73.8736 29° Northeast 320 368 11,000 -900 Descending New York Center
08:56AM 40.0658 -73.8222 33° Northeast 302 348 9,900 -1,500 Descending New York Center
08:57AM 40.1333 -73.8000 14° North 284 327 8,500 -1,860 Descending New York TRACON
08:58AM 40.2000 -73.8167 349° North 277 319 6,800 -1,620 Descending New York TRACON
08:59AM 40.2833 -73.8333 351° North 270 311 5,300 -1,500 Descending New York TRACON
09:00AM 40.3333 -73.8333 360° North 258 297 4,000 -1,680 Descending New York TRACON
09:01AM 40.4167 -73.8333 360° North 248 285 2,200 -1,020 Descending New York TRACON
09:02AM 40.4667 -73.8333 360° North 209 241 2,000 -240 Descending New York TRACON